sensor_id;sensor_type;location;lat;lon;timestamp;temperature;humidity
26986;DHT22;14535;48.936;9.058;2022-07-04T00:01:39;20.50;95.70
26986;DHT22;14535;48.936;9.058;2022-07-04T00:03:41;20.60;95.30
26986;DHT22;14535;48.936;9.058;2022-07-04T00:05:42;20.60;95.00
26986;DHT22;14535;48.936;9.058;2022-07-04T00:07:58;20.70;94.60
26986;DHT22;14535;48.936;9.058;2022-07-04T00:10:05;20.70;94.00
26986;DHT22;14535;48.936;9.058;2022-07-04T00:12:32;20.70;93.60
26986;DHT22;14535;48.936;9.058;2022-07-04T00:14:32;20.80;93.30
26986;DHT22;14535;48.936;9.058;2022-07-04T00:16:33;20.80;93.10
26986;DHT22;14535;48.936;9.058;2022-07-04T00:18:34;20.80;92.90
26986;DHT22;14535;48.936;9.058;2022-07-04T00:20:35;20.80;92.70
26986;DHT22;14535;48.936;9.058;2022-07-04T00:22:36;20.80;92.50
26986;DHT22;14535;48.936;9.058;2022-07-04T00:24:37;20.80;92.40
26986;DHT22;14535;48.936;9.058;2022-07-04T00:26:38;20.80;92.20
26986;DHT22;14535;48.936;9.058;2022-07-04T00:28:39;20.80;92.10
26986;DHT22;14535;48.936;9.058;2022-07-04T00:30:40;20.90;92.00
26986;DHT22;14535;48.936;9.058;2022-07-04T00:32:41;20.80;91.80
26986;DHT22;14535;48.936;9.058;2022-07-04T00:34:42;20.80;91.70
26986;DHT22;14535;48.936;9.058;2022-07-04T00:36:43;20.90;91.60
26986;DHT22;14535;48.936;9.058;2022-07-04T00:38:44;20.80;91.50
26986;DHT22;14535;48.936;9.058;2022-07-04T00:40:45;20.90;91.40
26986;DHT22;14535;48.936;9.058;2022-07-04T00:42:50;20.80;91.30
26986;DHT22;14535;48.936;9.058;2022-07-04T00:44:51;20.80;91.30
26986;DHT22;14535;48.936;9.058;2022-07-04T00:46:52;20.80;91.20
26986;DHT22;14535;48.936;9.058;2022-07-04T00:48:53;20.80;91.20
26986;DHT22;14535;48.936;9.058;2022-07-04T00:50:55;20.70;91.20
26986;DHT22;14535;48.936;9.058;2022-07-04T00:52:56;20.70;91.10
26986;DHT22;14535;48.936;9.058;2022-07-04T00:54:57;20.70;91.20
26986;DHT22;14535;48.936;9.058;2022-07-04T00:57:00;20.70;91.20
26986;DHT22;14535;48.936;9.058;2022-07-04T00:59:02;20.70;91.20
26986;DHT22;14535;48.936;9.058;2022-07-04T01:01:07;20.60;91.20
26986;DHT22;14535;48.936;9.058;2022-07-04T01:03:08;20.60;91.20
26986;DHT22;14535;48.936;9.058;2022-07-04T01:05:09;20.60;91.30
26986;DHT22;14535;48.936;9.058;2022-07-04T01:07:10;20.60;91.30
26986;DHT22;14535;48.936;9.058;2022-07-04T01:09:13;20.60;91.40
26986;DHT22;14535;48.936;9.058;2022-07-04T01:11:14;20.50;91.40
26986;DHT22;14535;48.936;9.058;2022-07-04T01:13:22;20.60;91.50
26986;DHT22;14535;48.936;9.058;2022-07-04T01:15:23;20.50;91.50
26986;DHT22;14535;48.936;9.058;2022-07-04T01:17:26;20.50;91.50
26986;DHT22;14535;48.936;9.058;2022-07-04T01:19:28;20.50;91.60
26986;DHT22;14535;48.936;9.058;2022-07-04T01:21:31;20.40;91.60
26986;DHT22;14535;48.936;9.058;2022-07-04T01:23:40;20.40;91.60
26986;DHT22;14535;48.936;9.058;2022-07-04T01:25:42;20.40;91.60
26986;DHT22;14535;48.936;9.058;2022-07-04T01:27:44;20.30;91.60
26986;DHT22;14535;48.936;9.058;2022-07-04T01:29:47;20.30;91.70
26986;DHT22;14535;48.936;9.058;2022-07-04T01:31:50;20.20;91.70
26986;DHT22;14535;48.936;9.058;2022-07-04T01:33:55;20.20;91.80
26986;DHT22;14535;48.936;9.058;2022-07-04T01:35:56;20.10;91.80
26986;DHT22;14535;48.936;9.058;2022-07-04T01:37:58;20.10;91.90
26986;DHT22;14535;48.936;9.058;2022-07-04T01:40:11;20.00;91.90
26986;DHT22;14535;48.936;9.058;2022-07-04T01:42:17;20.00;92.00
26986;DHT22;14535;48.936;9.058;2022-07-04T01:44:28;19.90;91.90
26986;DHT22;14535;48.936;9.058;2022-07-04T01:46:30;19.90;92.00
26986;DHT22;14535;48.936;9.058;2022-07-04T01:48:33;19.90;92.00
26986;DHT22;14535;48.936;9.058;2022-07-04T01:50:35;19.90;92.10
26986;DHT22;14535;48.936;9.058;2022-07-04T01:52:37;19.90;92.10
26986;DHT22;14535;48.936;9.058;2022-07-04T01:54:38;19.90;92.10
26986;DHT22;14535;48.936;9.058;2022-07-04T01:56:41;19.90;92.10
26986;DHT22;14535;48.936;9.058;2022-07-04T01:58:43;19.90;92.10
26986;DHT22;14535;48.936;9.058;2022-07-04T02:00:44;19.90;92.10
26986;DHT22;14535;48.936;9.058;2022-07-04T02:03:03;19.90;92.10
26986;DHT22;14535;48.936;9.058;2022-07-04T02:05:04;19.90;92.10
26986;DHT22;14535;48.936;9.058;2022-07-04T02:07:06;19.80;92.10
26986;DHT22;14535;48.936;9.058;2022-07-04T02:09:07;19.80;92.10
26986;DHT22;14535;48.936;9.058;2022-07-04T02:11:19;19.80;92.00
26986;DHT22;14535;48.936;9.058;2022-07-04T02:13:23;19.80;92.00
26986;DHT22;14535;48.936;9.058;2022-07-04T02:15:28;19.80;91.90
26986;DHT22;14535;48.936;9.058;2022-07-04T02:17:32;19.80;92.00
26986;DHT22;14535;48.936;9.058;2022-07-04T02:19:33;19.80;91.90
26986;DHT22;14535;48.936;9.058;2022-07-04T02:21:35;19.80;91.90
26986;DHT22;14535;48.936;9.058;2022-07-04T02:23:40;19.80;91.90
26986;DHT22;14535;48.936;9.058;2022-07-04T02:25:41;19.70;91.90
26986;DHT22;14535;48.936;9.058;2022-07-04T02:27:41;19.70;91.90
26986;DHT22;14535;48.936;9.058;2022-07-04T02:29:51;19.70;92.00
26986;DHT22;14535;48.936;9.058;2022-07-04T02:31:51;19.70;92.00
26986;DHT22;14535;48.936;9.058;2022-07-04T02:33:58;19.70;92.10
26986;DHT22;14535;48.936;9.058;2022-07-04T02:36:00;19.70;92.10
26986;DHT22;14535;48.936;9.058;2022-07-04T02:38:01;19.70;92.00
26986;DHT22;14535;48.936;9.058;2022-07-04T02:40:04;19.70;92.10
26986;DHT22;14535;48.936;9.058;2022-07-04T02:42:07;19.70;92.00
26986;DHT22;14535;48.936;9.058;2022-07-04T02:44:09;19.70;92.10
26986;DHT22;14535;48.936;9.058;2022-07-04T02:46:11;19.70;92.10
26986;DHT22;14535;48.936;9.058;2022-07-04T02:48:15;19.70;92.10
26986;DHT22;14535;48.936;9.058;2022-07-04T02:50:17;19.70;92.20
26986;DHT22;14535;48.936;9.058;2022-07-04T02:52:18;19.60;92.10
26986;DHT22;14535;48.936;9.058;2022-07-04T02:54:18;19.70;92.20
26986;DHT22;14535;48.936;9.058;2022-07-04T02:56:20;19.60;92.20
26986;DHT22;14535;48.936;9.058;2022-07-04T02:58:21;19.60;92.20
26986;DHT22;14535;48.936;9.058;2022-07-04T03:00:25;19.60;92.20
26986;DHT22;14535;48.936;9.058;2022-07-04T03:02:27;19.50;92.10
26986;DHT22;14535;48.936;9.058;2022-07-04T03:04:29;19.50;92.20
26986;DHT22;14535;48.936;9.058;2022-07-04T03:06:30;19.50;92.20
26986;DHT22;14535;48.936;9.058;2022-07-04T03:08:31;19.40;92.30
26986;DHT22;14535;48.936;9.058;2022-07-04T03:10:31;19.40;92.30
26986;DHT22;14535;48.936;9.058;2022-07-04T03:12:33;19.30;92.20
26986;DHT22;14535;48.936;9.058;2022-07-04T03:14:36;19.30;92.30
26986;DHT22;14535;48.936;9.058;2022-07-04T03:16:36;19.30;92.40
26986;DHT22;14535;48.936;9.058;2022-07-04T03:18:37;19.30;92.50
26986;DHT22;14535;48.936;9.058;2022-07-04T03:20:38;19.20;92.60
26986;DHT22;14535;48.936;9.058;2022-07-04T03:22:38;19.10;92.70
26986;DHT22;14535;48.936;9.058;2022-07-04T03:24:39;19.10;92.70
26986;DHT22;14535;48.936;9.058;2022-07-04T03:26:40;19.00;92.90
26986;DHT22;14535;48.936;9.058;2022-07-04T03:28:42;19.00;93.00
26986;DHT22;14535;48.936;9.058;2022-07-04T03:30:44;18.90;93.00
26986;DHT22;14535;48.936;9.058;2022-07-04T03:32:47;18.90;93.40
26986;DHT22;14535;48.936;9.058;2022-07-04T03:34:49;18.90;93.10
26986;DHT22;14535;48.936;9.058;2022-07-04T03:36:50;18.80;93.10
26986;DHT22;14535;48.936;9.058;2022-07-04T03:38:51;18.80;93.30
26986;DHT22;14535;48.936;9.058;2022-07-04T03:40:51;18.80;93.50
26986;DHT22;14535;48.936;9.058;2022-07-04T03:42:52;18.70;93.70
26986;DHT22;14535;48.936;9.058;2022-07-04T03:44:52;18.70;93.90
26986;DHT22;14535;48.936;9.058;2022-07-04T03:46:53;18.60;93.90
26986;DHT22;14535;48.936;9.058;2022-07-04T03:49:00;18.60;94.00
26986;DHT22;14535;48.936;9.058;2022-07-04T03:51:03;18.50;94.10
26986;DHT22;14535;48.936;9.058;2022-07-04T03:53:04;18.50;94.20
26986;DHT22;14535;48.936;9.058;2022-07-04T03:55:05;18.50;94.60
26986;DHT22;14535;48.936;9.058;2022-07-04T03:57:07;18.50;94.70
26986;DHT22;14535;48.936;9.058;2022-07-04T03:59:10;18.50;94.90
26986;DHT22;14535;48.936;9.058;2022-07-04T04:01:11;18.40;95.00
26986;DHT22;14535;48.936;9.058;2022-07-04T04:03:12;18.40;95.00
26986;DHT22;14535;48.936;9.058;2022-07-04T04:05:37;18.40;95.10
26986;DHT22;14535;48.936;9.058;2022-07-04T04:07:38;18.40;95.30
26986;DHT22;14535;48.936;9.058;2022-07-04T04:09:39;18.40;95.40
26986;DHT22;14535;48.936;9.058;2022-07-04T04:11:41;18.40;95.30
26986;DHT22;14535;48.936;9.058;2022-07-04T04:13:55;18.40;95.40
26986;DHT22;14535;48.936;9.058;2022-07-04T04:16:07;18.40;95.40
26986;DHT22;14535;48.936;9.058;2022-07-04T04:18:12;18.30;95.50
26986;DHT22;14535;48.936;9.058;2022-07-04T04:20:15;18.30;95.50
26986;DHT22;14535;48.936;9.058;2022-07-04T04:22:16;18.30;95.60
26986;DHT22;14535;48.936;9.058;2022-07-04T04:24:17;18.30;95.70
26986;DHT22;14535;48.936;9.058;2022-07-04T04:26:24;18.40;95.70
26986;DHT22;14535;48.936;9.058;2022-07-04T04:28:25;18.40;95.70
26986;DHT22;14535;48.936;9.058;2022-07-04T04:30:44;18.40;95.80
26986;DHT22;14535;48.936;9.058;2022-07-04T04:32:46;18.40;95.80
26986;DHT22;14535;48.936;9.058;2022-07-04T04:35:06;18.40;95.90
26986;DHT22;14535;48.936;9.058;2022-07-04T04:37:07;18.40;95.90
26986;DHT22;14535;48.936;9.058;2022-07-04T04:39:08;18.50;96.00
26986;DHT22;14535;48.936;9.058;2022-07-04T04:41:09;18.50;95.90
26986;DHT22;14535;48.936;9.058;2022-07-04T04:43:12;18.60;95.90
26986;DHT22;14535;48.936;9.058;2022-07-04T04:45:13;18.60;95.80
26986;DHT22;14535;48.936;9.058;2022-07-04T04:47:15;18.70;95.70
26986;DHT22;14535;48.936;9.058;2022-07-04T04:49:19;18.70;95.60
26986;DHT22;14535;48.936;9.058;2022-07-04T04:51:19;18.70;95.50
26986;DHT22;14535;48.936;9.058;2022-07-04T04:53:20;18.70;95.50
26986;DHT22;14535;48.936;9.058;2022-07-04T04:55:27;18.70;95.50
26986;DHT22;14535;48.936;9.058;2022-07-04T04:57:33;18.80;95.60
26986;DHT22;14535;48.936;9.058;2022-07-04T04:59:46;18.80;95.50
26986;DHT22;14535;48.936;9.058;2022-07-04T05:02:05;18.80;95.60
26986;DHT22;14535;48.936;9.058;2022-07-04T05:04:15;18.90;95.60
26986;DHT22;14535;48.936;9.058;2022-07-04T05:06:20;18.90;95.50
26986;DHT22;14535;48.936;9.058;2022-07-04T05:08:21;18.90;95.50
26986;DHT22;14535;48.936;9.058;2022-07-04T05:10:25;18.90;95.40
26986;DHT22;14535;48.936;9.058;2022-07-04T05:12:49;18.90;95.40
26986;DHT22;14535;48.936;9.058;2022-07-04T05:14:53;18.90;95.40
26986;DHT22;14535;48.936;9.058;2022-07-04T05:16:54;18.90;95.30
26986;DHT22;14535;48.936;9.058;2022-07-04T05:18:56;19.00;95.30
26986;DHT22;14535;48.936;9.058;2022-07-04T05:21:01;19.00;95.30
26986;DHT22;14535;48.936;9.058;2022-07-04T05:23:05;19.00;95.30
26986;DHT22;14535;48.936;9.058;2022-07-04T05:25:08;19.10;95.20
26986;DHT22;14535;48.936;9.058;2022-07-04T05:27:09;19.10;95.00
26986;DHT22;14535;48.936;9.058;2022-07-04T05:29:11;19.10;94.80
26986;DHT22;14535;48.936;9.058;2022-07-04T05:31:13;19.20;94.80
26986;DHT22;14535;48.936;9.058;2022-07-04T05:33:14;19.20;94.50
26986;DHT22;14535;48.936;9.058;2022-07-04T05:35:15;19.40;94.40
26986;DHT22;14535;48.936;9.058;2022-07-04T05:37:16;19.40;93.70
26986;DHT22;14535;48.936;9.058;2022-07-04T05:39:16;19.50;93.50
26986;DHT22;14535;48.936;9.058;2022-07-04T05:41:17;19.60;92.90
26986;DHT22;14535;48.936;9.058;2022-07-04T05:43:18;19.70;92.60
26986;DHT22;14535;48.936;9.058;2022-07-04T05:45:19;19.80;92.60
26986;DHT22;14535;48.936;9.058;2022-07-04T05:47:19;19.90;92.30
26986;DHT22;14535;48.936;9.058;2022-07-04T05:49:23;20.00;92.30
26986;DHT22;14535;48.936;9.058;2022-07-04T05:51:24;20.00;92.30
26986;DHT22;14535;48.936;9.058;2022-07-04T05:53:25;20.20;92.20
26986;DHT22;14535;48.936;9.058;2022-07-04T05:55:25;20.30;91.90
26986;DHT22;14535;48.936;9.058;2022-07-04T05:57:26;20.40;91.70
26986;DHT22;14535;48.936;9.058;2022-07-04T05:59:27;20.60;91.50
26986;DHT22;14535;48.936;9.058;2022-07-04T06:01:29;20.70;91.20
26986;DHT22;14535;48.936;9.058;2022-07-04T06:03:30;20.90;90.60
26986;DHT22;14535;48.936;9.058;2022-07-04T06:05:32;21.10;90.30
26986;DHT22;14535;48.936;9.058;2022-07-04T06:07:33;21.20;88.70
26986;DHT22;14535;48.936;9.058;2022-07-04T06:09:34;21.30;88.30
26986;DHT22;14535;48.936;9.058;2022-07-04T06:11:35;21.30;87.00
26986;DHT22;14535;48.936;9.058;2022-07-04T06:13:35;21.30;87.20
26986;DHT22;14535;48.936;9.058;2022-07-04T06:15:36;21.30;87.60
26986;DHT22;14535;48.936;9.058;2022-07-04T06:17:37;21.40;86.50
26986;DHT22;14535;48.936;9.058;2022-07-04T06:19:38;21.40;86.80
26986;DHT22;14535;48.936;9.058;2022-07-04T06:21:39;21.50;87.40
26986;DHT22;14535;48.936;9.058;2022-07-04T06:23:39;21.60;87.60
26986;DHT22;14535;48.936;9.058;2022-07-04T06:28:18;21.80;87.70
26986;DHT22;14535;48.936;9.058;2022-07-04T06:30:19;21.90;87.40
26986;DHT22;14535;48.936;9.058;2022-07-04T06:32:20;21.90;86.90
26986;DHT22;14535;48.936;9.058;2022-07-04T06:34:20;22.00;87.00
26986;DHT22;14535;48.936;9.058;2022-07-04T06:36:39;22.10;85.70
26986;DHT22;14535;48.936;9.058;2022-07-04T06:41:08;22.30;85.90
26986;DHT22;14535;48.936;9.058;2022-07-04T06:43:09;22.50;85.20
26986;DHT22;14535;48.936;9.058;2022-07-04T06:45:11;22.70;84.90
26986;DHT22;14535;48.936;9.058;2022-07-04T06:47:12;22.90;82.80
26986;DHT22;14535;48.936;9.058;2022-07-04T06:49:14;23.00;82.10
26986;DHT22;14535;48.936;9.058;2022-07-04T06:51:19;23.00;81.60
26986;DHT22;14535;48.936;9.058;2022-07-04T06:53:21;23.20;80.10
26986;DHT22;14535;48.936;9.058;2022-07-04T06:55:27;23.30;79.50
26986;DHT22;14535;48.936;9.058;2022-07-04T06:57:29;23.30;80.00
26986;DHT22;14535;48.936;9.058;2022-07-04T06:59:55;23.40;80.30
26986;DHT22;14535;48.936;9.058;2022-07-04T07:01:59;23.50;79.80
26986;DHT22;14535;48.936;9.058;2022-07-04T07:03:59;23.50;77.90
26986;DHT22;14535;48.936;9.058;2022-07-04T07:06:00;23.40;78.10
26986;DHT22;14535;48.936;9.058;2022-07-04T07:08:03;23.30;78.40
26986;DHT22;14535;48.936;9.058;2022-07-04T07:10:04;23.20;78.70
26986;DHT22;14535;48.936;9.058;2022-07-04T07:12:06;23.20;79.50
26986;DHT22;14535;48.936;9.058;2022-07-04T07:14:07;23.30;80.30
26986;DHT22;14535;48.936;9.058;2022-07-04T07:16:08;23.30;79.40
26986;DHT22;14535;48.936;9.058;2022-07-04T07:18:09;23.40;78.30
26986;DHT22;14535;48.936;9.058;2022-07-04T07:20:09;23.40;78.50
26986;DHT22;14535;48.936;9.058;2022-07-04T07:22:10;23.50;79.10
26986;DHT22;14535;48.936;9.058;2022-07-04T07:24:12;23.60;79.10
26986;DHT22;14535;48.936;9.058;2022-07-04T07:26:12;23.60;78.20
26986;DHT22;14535;48.936;9.058;2022-07-04T07:28:13;23.60;78.40
26986;DHT22;14535;48.936;9.058;2022-07-04T07:30:14;23.60;78.30
26986;DHT22;14535;48.936;9.058;2022-07-04T07:32:14;23.60;77.30
26986;DHT22;14535;48.936;9.058;2022-07-04T07:34:15;23.60;77.70
26986;DHT22;14535;48.936;9.058;2022-07-04T07:36:15;23.60;78.00
26986;DHT22;14535;48.936;9.058;2022-07-04T07:38:16;23.60;78.10
26986;DHT22;14535;48.936;9.058;2022-07-04T07:40:16;23.60;77.20
26986;DHT22;14535;48.936;9.058;2022-07-04T07:42:17;23.60;78.30
26986;DHT22;14535;48.936;9.058;2022-07-04T07:44:17;23.50;77.70
26986;DHT22;14535;48.936;9.058;2022-07-04T07:46:18;23.50;77.60
26986;DHT22;14535;48.936;9.058;2022-07-04T07:48:18;23.50;77.70
26986;DHT22;14535;48.936;9.058;2022-07-04T07:50:19;23.40;77.90
26986;DHT22;14535;48.936;9.058;2022-07-04T07:52:20;23.30;78.70
26986;DHT22;14535;48.936;9.058;2022-07-04T07:54:20;23.30;78.50
26986;DHT22;14535;48.936;9.058;2022-07-04T07:56:22;23.30;78.10
26986;DHT22;14535;48.936;9.058;2022-07-04T07:58:22;23.30;78.40
26986;DHT22;14535;48.936;9.058;2022-07-04T08:00:26;23.30;78.50
26986;DHT22;14535;48.936;9.058;2022-07-04T08:02:29;23.20;78.80
26986;DHT22;14535;48.936;9.058;2022-07-04T08:05:16;23.30;78.10
26986;DHT22;14535;48.936;9.058;2022-07-04T08:07:25;23.20;78.00
26986;DHT22;14535;48.936;9.058;2022-07-04T08:09:52;23.20;78.50
26986;DHT22;14535;48.936;9.058;2022-07-04T08:12:15;23.20;79.00
26986;DHT22;14535;48.936;9.058;2022-07-04T08:14:45;23.30;78.80
26986;DHT22;14535;48.936;9.058;2022-07-04T08:16:45;23.50;78.40
26986;DHT22;14535;48.936;9.058;2022-07-04T08:18:52;23.70;78.70
26986;DHT22;14535;48.936;9.058;2022-07-04T08:21:18;23.90;76.90
26986;DHT22;14535;48.936;9.058;2022-07-04T08:26:16;24.20;75.30
26986;DHT22;14535;48.936;9.058;2022-07-04T08:28:52;24.40;75.80
26986;DHT22;14535;48.936;9.058;2022-07-04T08:31:21;24.80;73.10
26986;DHT22;14535;48.936;9.058;2022-07-04T08:33:50;24.90;73.30
26986;DHT22;14535;48.936;9.058;2022-07-04T08:35:58;25.00;74.20
26986;DHT22;14535;48.936;9.058;2022-07-04T08:37:59;25.20;73.30
26986;DHT22;14535;48.936;9.058;2022-07-04T08:39:59;25.30;72.20
26986;DHT22;14535;48.936;9.058;2022-07-04T08:42:02;25.50;70.80
26986;DHT22;14535;48.936;9.058;2022-07-04T08:44:06;25.60;69.90
26986;DHT22;14535;48.936;9.058;2022-07-04T08:46:07;25.60;70.10
26986;DHT22;14535;48.936;9.058;2022-07-04T08:48:10;25.70;71.00
26986;DHT22;14535;48.936;9.058;2022-07-04T08:50:20;25.80;71.50
26986;DHT22;14535;48.936;9.058;2022-07-04T08:52:26;25.90;71.20
26986;DHT22;14535;48.936;9.058;2022-07-04T08:54:32;26.10;69.20
26986;DHT22;14535;48.936;9.058;2022-07-04T08:56:51;26.30;68.50
26986;DHT22;14535;48.936;9.058;2022-07-04T08:59:10;26.40;67.60
26986;DHT22;14535;48.936;9.058;2022-07-04T09:01:13;26.80;66.40
26986;DHT22;14535;48.936;9.058;2022-07-04T09:03:18;27.00;64.90
26986;DHT22;14535;48.936;9.058;2022-07-04T09:05:19;27.40;63.80
26986;DHT22;14535;48.936;9.058;2022-07-04T09:07:19;27.60;62.70
26986;DHT22;14535;48.936;9.058;2022-07-04T09:09:20;27.70;62.10
26986;DHT22;14535;48.936;9.058;2022-07-04T09:11:21;27.70;61.20
26986;DHT22;14535;48.936;9.058;2022-07-04T09:13:22;27.70;60.70
26986;DHT22;14535;48.936;9.058;2022-07-04T09:15:22;27.70;60.10
26986;DHT22;14535;48.936;9.058;2022-07-04T09:17:23;27.70;60.90
26986;DHT22;14535;48.936;9.058;2022-07-04T09:19:24;27.70;61.50
26986;DHT22;14535;48.936;9.058;2022-07-04T09:21:47;27.70;60.80
26986;DHT22;14535;48.936;9.058;2022-07-04T09:23:49;27.70;60.10
26986;DHT22;14535;48.936;9.058;2022-07-04T09:28:27;27.70;61.60
26986;DHT22;14535;48.936;9.058;2022-07-04T09:30:30;28.00;62.50
26986;DHT22;14535;48.936;9.058;2022-07-04T09:33:08;28.40;62.20
26986;DHT22;14535;48.936;9.058;2022-07-04T09:35:10;29.00;62.10
26986;DHT22;14535;48.936;9.058;2022-07-04T09:37:11;29.60;58.80
26986;DHT22;14535;48.936;9.058;2022-07-04T09:39:14;30.20;57.70
26986;DHT22;14535;48.936;9.058;2022-07-04T09:41:20;30.70;56.10
26986;DHT22;14535;48.936;9.058;2022-07-04T09:43:29;31.30;53.10
26986;DHT22;14535;48.936;9.058;2022-07-04T09:45:31;31.60;52.20
26986;DHT22;14535;48.936;9.058;2022-07-04T09:47:32;31.80;52.40
26986;DHT22;14535;48.936;9.058;2022-07-04T09:49:32;32.00;51.20
26986;DHT22;14535;48.936;9.058;2022-07-04T09:51:40;32.20;51.60
26986;DHT22;14535;48.936;9.058;2022-07-04T09:53:44;32.50;51.00
26986;DHT22;14535;48.936;9.058;2022-07-04T09:55:46;32.90;50.70
26986;DHT22;14535;48.936;9.058;2022-07-04T09:57:47;33.30;48.00
26986;DHT22;14535;48.936;9.058;2022-07-04T09:59:47;33.60;46.90
26986;DHT22;14535;48.936;9.058;2022-07-04T10:01:48;33.70;45.50
26986;DHT22;14535;48.936;9.058;2022-07-04T10:03:51;33.60;46.40
26986;DHT22;14535;48.936;9.058;2022-07-04T10:06:10;33.60;46.00
26986;DHT22;14535;48.936;9.058;2022-07-04T10:08:12;33.40;45.70
26986;DHT22;14535;48.936;9.058;2022-07-04T10:10:22;32.90;46.60
26986;DHT22;14535;48.936;9.058;2022-07-04T10:12:34;32.70;47.60
26986;DHT22;14535;48.936;9.058;2022-07-04T10:14:34;32.60;47.00
26986;DHT22;14535;48.936;9.058;2022-07-04T10:16:35;32.60;48.00
26986;DHT22;14535;48.936;9.058;2022-07-04T10:18:37;32.70;48.80
26986;DHT22;14535;48.936;9.058;2022-07-04T10:20:38;32.90;48.90
26986;DHT22;14535;48.936;9.058;2022-07-04T10:22:41;33.10;48.90
26986;DHT22;14535;48.936;9.058;2022-07-04T10:24:42;33.50;47.90
26986;DHT22;14535;48.936;9.058;2022-07-04T10:26:43;33.80;46.70
26986;DHT22;14535;48.936;9.058;2022-07-04T10:28:44;34.20;44.50
26986;DHT22;14535;48.936;9.058;2022-07-04T10:30:46;34.40;44.00
26986;DHT22;14535;48.936;9.058;2022-07-04T10:32:49;34.40;43.10
26986;DHT22;14535;48.936;9.058;2022-07-04T10:34:50;34.30;42.70
26986;DHT22;14535;48.936;9.058;2022-07-04T10:36:51;34.00;43.70
26986;DHT22;14535;48.936;9.058;2022-07-04T10:39:02;33.70;43.90
26986;DHT22;14535;48.936;9.058;2022-07-04T10:41:04;33.60;43.70
26986;DHT22;14535;48.936;9.058;2022-07-04T10:45:38;33.40;42.90
26986;DHT22;14535;48.936;9.058;2022-07-04T10:47:39;33.20;43.40
26986;DHT22;14535;48.936;9.058;2022-07-04T10:49:39;33.10;44.30
26986;DHT22;14535;48.936;9.058;2022-07-04T10:51:52;33.20;45.10
26986;DHT22;14535;48.936;9.058;2022-07-04T10:53:58;33.50;44.60
26986;DHT22;14535;48.936;9.058;2022-07-04T10:58:36;34.20;44.50
26986;DHT22;14535;48.936;9.058;2022-07-04T11:00:39;34.70;41.90
26986;DHT22;14535;48.936;9.058;2022-07-04T11:03:14;35.00;42.10
26986;DHT22;14535;48.936;9.058;2022-07-04T11:05:15;35.30;41.20
26986;DHT22;14535;48.936;9.058;2022-07-04T11:07:24;35.30;41.70
26986;DHT22;14535;48.936;9.058;2022-07-04T11:09:42;35.40;42.40
26986;DHT22;14535;48.936;9.058;2022-07-04T11:11:50;35.70;40.90
26986;DHT22;14535;48.936;9.058;2022-07-04T11:14:29;35.70;40.10
26986;DHT22;14535;48.936;9.058;2022-07-04T11:16:51;35.70;40.10
26986;DHT22;14535;48.936;9.058;2022-07-04T11:18:52;35.60;39.30
26986;DHT22;14535;48.936;9.058;2022-07-04T11:20:52;35.30;40.00
26986;DHT22;14535;48.936;9.058;2022-07-04T11:23:03;35.30;41.00
26986;DHT22;14535;48.936;9.058;2022-07-04T11:25:07;35.50;41.40
26986;DHT22;14535;48.936;9.058;2022-07-04T11:27:08;35.80;41.10
26986;DHT22;14535;48.936;9.058;2022-07-04T11:29:14;36.30;40.40
26986;DHT22;14535;48.936;9.058;2022-07-04T11:31:15;36.50;38.40
26986;DHT22;14535;48.936;9.058;2022-07-04T11:33:19;36.50;38.30
26986;DHT22;14535;48.936;9.058;2022-07-04T11:35:20;36.30;38.30
26986;DHT22;14535;48.936;9.058;2022-07-04T11:37:22;35.90;39.50
26986;DHT22;14535;48.936;9.058;2022-07-04T11:39:24;35.90;40.50
26986;DHT22;14535;48.936;9.058;2022-07-04T11:41:25;36.20;41.10
26986;DHT22;14535;48.936;9.058;2022-07-04T11:43:46;36.60;40.30
26986;DHT22;14535;48.936;9.058;2022-07-04T11:46:11;37.10;38.80
26986;DHT22;14535;48.936;9.058;2022-07-04T11:48:20;37.40;38.00
26986;DHT22;14535;48.936;9.058;2022-07-04T11:50:23;37.50;37.40
26986;DHT22;14535;48.936;9.058;2022-07-04T11:52:25;37.00;37.60
26986;DHT22;14535;48.936;9.058;2022-07-04T11:54:27;36.70;38.80
26986;DHT22;14535;48.936;9.058;2022-07-04T11:56:29;36.60;39.50
26986;DHT22;14535;48.936;9.058;2022-07-04T11:58:42;36.60;38.20
26986;DHT22;14535;48.936;9.058;2022-07-04T12:00:43;36.20;38.70
26986;DHT22;14535;48.936;9.058;2022-07-04T12:02:47;35.70;39.60
26986;DHT22;14535;48.936;9.058;2022-07-04T12:04:48;35.10;40.90
26986;DHT22;14535;48.936;9.058;2022-07-04T12:06:49;34.60;41.90
26986;DHT22;14535;48.936;9.058;2022-07-04T12:08:50;34.00;43.00
26986;DHT22;14535;48.936;9.058;2022-07-04T12:10:50;33.70;44.00
26986;DHT22;14535;48.936;9.058;2022-07-04T12:13:04;33.60;44.00
26986;DHT22;14535;48.936;9.058;2022-07-04T12:15:53;33.70;43.30
26986;DHT22;14535;48.936;9.058;2022-07-04T12:18:30;34.20;42.00
26986;DHT22;14535;48.936;9.058;2022-07-04T12:20:33;34.60;41.10
26986;DHT22;14535;48.936;9.058;2022-07-04T12:22:35;34.90;41.00
26986;DHT22;14535;48.936;9.058;2022-07-04T12:24:42;35.00;41.10
26986;DHT22;14535;48.936;9.058;2022-07-04T12:26:49;35.30;41.50
26986;DHT22;14535;48.936;9.058;2022-07-04T12:28:49;35.80;41.60
26986;DHT22;14535;48.936;9.058;2022-07-04T12:32:52;36.90;40.50
26986;DHT22;14535;48.936;9.058;2022-07-04T12:35:04;37.20;40.30
26986;DHT22;14535;48.936;9.058;2022-07-04T12:37:10;37.50;39.70
26986;DHT22;14535;48.936;9.058;2022-07-04T12:39:31;37.80;39.10
26986;DHT22;14535;48.936;9.058;2022-07-04T12:42:03;38.00;39.10
26986;DHT22;14535;48.936;9.058;2022-07-04T12:44:50;38.30;38.60
26986;DHT22;14535;48.936;9.058;2022-07-04T12:46:55;38.80;38.30
26986;DHT22;14535;48.936;9.058;2022-07-04T12:49:13;39.20;35.80
26986;DHT22;14535;48.936;9.058;2022-07-04T12:51:26;39.40;36.00
26986;DHT22;14535;48.936;9.058;2022-07-04T12:53:28;39.20;35.80
26986;DHT22;14535;48.936;9.058;2022-07-04T12:55:43;39.00;37.00
26986;DHT22;14535;48.936;9.058;2022-07-04T12:57:45;39.10;37.00
26986;DHT22;14535;48.936;9.058;2022-07-04T12:59:45;39.20;37.40
26986;DHT22;14535;48.936;9.058;2022-07-04T13:01:46;39.50;37.60
26986;DHT22;14535;48.936;9.058;2022-07-04T13:03:47;39.80;37.30
26986;DHT22;14535;48.936;9.058;2022-07-04T13:05:47;40.20;37.00
26986;DHT22;14535;48.936;9.058;2022-07-04T13:07:48;40.50;35.60
26986;DHT22;14535;48.936;9.058;2022-07-04T13:09:48;40.60;36.20
26986;DHT22;14535;48.936;9.058;2022-07-04T13:11:49;40.70;35.80
26986;DHT22;14535;48.936;9.058;2022-07-04T13:14:08;41.00;35.60
26986;DHT22;14535;48.936;9.058;2022-07-04T13:16:09;41.10;34.90
26986;DHT22;14535;48.936;9.058;2022-07-04T13:18:09;41.10;34.60
26986;DHT22;14535;48.936;9.058;2022-07-04T13:20:10;41.10;34.50
26986;DHT22;14535;48.936;9.058;2022-07-04T13:22:13;41.20;34.20
26986;DHT22;14535;48.936;9.058;2022-07-04T13:24:13;41.20;33.90
26986;DHT22;14535;48.936;9.058;2022-07-04T13:26:16;41.30;34.00